createdAt,value
2023-05-23T00:00:19.313Z,13.30
2023-05-23T00:02:49.739Z,13.30
2023-05-23T00:05:18.235Z,13.20
2023-05-23T00:07:46.571Z,13.20
2023-05-23T00:10:15.348Z,13.40
2023-05-23T00:12:43.558Z,13.30
2023-05-23T00:15:12.240Z,13.20
2023-05-23T00:17:40.530Z,13.10
2023-05-23T00:20:12.151Z,13.10
2023-05-23T00:22:43.196Z,13.10
2023-05-23T00:25:11.709Z,13.20
2023-05-23T00:27:39.915Z,13.10
2023-05-23T00:30:09.240Z,13.20
2023-05-23T00:32:38.020Z,13.20
2023-05-23T00:35:07.014Z,13.20
2023-05-23T00:37:36.545Z,13.10
2023-05-23T00:40:05.019Z,12.90
2023-05-23T00:42:33.957Z,12.90
2023-05-23T00:45:02.157Z,12.70
2023-05-23T00:47:30.724Z,12.60
2023-05-23T00:49:59.033Z,12.80
2023-05-23T00:52:27.499Z,12.90
2023-05-23T00:54:57.618Z,12.90
2023-05-23T00:57:25.904Z,12.80
2023-05-23T00:59:54.203Z,12.70
2023-05-23T01:02:22.875Z,12.60
2023-05-23T01:04:54.451Z,12.60
2023-05-23T01:07:22.787Z,12.50
2023-05-23T01:09:51.606Z,12.40
2023-05-23T01:12:30.897Z,12.40
2023-05-23T01:15:06.484Z,12.30
2023-05-23T01:17:42.257Z,12.20
2023-05-23T01:20:14.072Z,12.20
2023-05-23T01:23:01.485Z,12.20
2023-05-23T01:25:48.177Z,12.00
2023-05-23T01:28:20.905Z,12.20
2023-05-23T01:30:52.146Z,12.20
2023-05-23T01:33:23.835Z,12.30
2023-05-23T01:35:52.719Z,12.40
2023-05-23T01:38:20.905Z,12.40
2023-05-23T01:40:49.111Z,12.40
2023-05-23T01:43:18.754Z,12.20
2023-05-23T01:45:47.296Z,12.20
2023-05-23T01:48:16.990Z,12.30
2023-05-23T01:50:46.487Z,12.00
2023-05-23T01:53:16.938Z,12.10
2023-05-23T01:55:45.254Z,11.90
2023-05-23T01:58:13.671Z,12.00
2023-05-23T02:00:43.231Z,12.20
2023-05-23T02:03:11.781Z,12.20
2023-05-23T02:05:40.507Z,12.10
2023-05-23T02:08:08.928Z,12.10
2023-05-23T02:10:37.106Z,11.80
2023-05-23T02:13:05.261Z,11.80
2023-05-23T02:15:33.439Z,11.70
2023-05-23T02:18:03.522Z,11.60
2023-05-23T02:20:31.826Z,11.80
2023-05-23T02:23:00.045Z,11.80
2023-05-23T02:25:28.266Z,11.90
2023-05-23T02:27:56.452Z,11.80
2023-05-23T02:30:24.591Z,11.80
2023-05-23T02:32:53.266Z,11.80
2023-05-23T02:35:23.909Z,11.80
2023-05-23T02:37:52.093Z,11.80
2023-05-23T02:40:20.259Z,11.80
2023-05-23T02:42:48.422Z,11.90
2023-05-23T02:45:16.582Z,11.60
2023-05-23T02:47:44.883Z,11.80
2023-05-23T02:50:13.303Z,11.70
2023-05-23T02:52:44.197Z,11.50
2023-05-23T02:55:12.400Z,11.50
2023-05-23T02:57:40.639Z,11.70
2023-05-23T03:00:11.861Z,11.60
2023-05-23T03:02:40.163Z,11.80
2023-05-23T03:05:09.341Z,11.80
2023-05-23T03:07:38.113Z,11.80
2023-05-23T03:10:11.541Z,11.80
2023-05-23T03:12:39.751Z,11.70
2023-05-23T03:15:08.823Z,11.70
2023-05-23T03:17:37.194Z,11.70
2023-05-23T03:20:09.740Z,11.70
2023-05-23T03:22:38.015Z,11.80
2023-05-23T03:25:08.858Z,11.70
2023-05-23T03:27:37.025Z,11.90
2023-05-23T03:30:06.012Z,11.90
2023-05-23T03:32:34.230Z,11.90
2023-05-23T03:35:02.425Z,12.00
2023-05-23T03:37:30.654Z,12.00
2023-05-23T03:39:58.836Z,12.10
2023-05-23T03:42:29.778Z,12.00
2023-05-23T03:44:57.971Z,12.10
2023-05-23T03:47:26.172Z,12.10
2023-05-23T03:49:54.420Z,12.20
2023-05-23T03:52:22.625Z,12.20
2023-05-23T03:54:50.807Z,12.20
2023-05-23T03:57:19.098Z,12.30
2023-05-23T03:59:48.756Z,12.30
2023-05-23T04:02:17.096Z,12.50
2023-05-23T04:04:45.361Z,12.60
2023-05-23T04:07:14.852Z,12.60
2023-05-23T04:09:43.056Z,12.60
2023-05-23T04:12:12.074Z,12.60
2023-05-23T04:14:40.578Z,12.60
2023-05-23T04:17:10.236Z,12.60
2023-05-23T04:19:38.607Z,12.70
2023-05-23T04:22:07.264Z,12.80
2023-05-23T04:24:35.725Z,12.80
2023-05-23T04:27:03.896Z,12.90
2023-05-23T04:29:33.330Z,12.90
2023-05-23T04:32:01.520Z,13.00
2023-05-23T04:34:33.853Z,13.10
2023-05-23T04:37:02.977Z,13.00
2023-05-23T04:39:31.483Z,13.10
2023-05-23T04:41:59.879Z,13.10
2023-05-23T04:44:30.396Z,13.10
2023-05-23T04:46:58.997Z,13.30
2023-05-23T04:49:27.230Z,13.40
2023-05-23T04:51:56.765Z,13.50
2023-05-23T04:54:24.935Z,13.60
2023-05-23T04:56:53.259Z,13.60
2023-05-23T04:59:21.554Z,13.60
2023-05-23T05:01:49.747Z,13.70
2023-05-23T05:04:18.069Z,13.90
2023-05-23T05:06:48.124Z,14.00
2023-05-23T05:09:17.681Z,14.10
2023-05-23T05:11:46.001Z,14.20
2023-05-23T05:14:14.192Z,14.20
2023-05-23T05:16:42.908Z,14.40
2023-05-23T05:19:11.252Z,14.40
2023-05-23T05:21:39.464Z,14.50
2023-05-23T05:24:09.634Z,14.60
2023-05-23T05:26:39.334Z,14.70
2023-05-23T05:29:07.484Z,14.90
2023-05-23T05:31:36.052Z,14.90
2023-05-23T05:34:04.278Z,15.00
2023-05-23T05:36:32.692Z,15.10
2023-05-23T05:39:00.908Z,15.30
2023-05-23T05:41:29.085Z,15.30
2023-05-23T05:43:58.626Z,15.50
2023-05-23T05:46:26.913Z,15.50
2023-05-23T05:48:55.102Z,15.70
2023-05-23T05:51:23.309Z,15.70
2023-05-23T05:53:51.459Z,15.90
2023-05-23T05:56:19.928Z,16.00
2023-05-23T05:58:48.080Z,16.10
2023-05-23T06:01:17.769Z,16.20
2023-05-23T06:03:46.187Z,16.40
2023-05-23T06:06:14.491Z,16.50
2023-05-23T06:08:43.501Z,16.60
2023-05-23T06:11:12.120Z,16.70
2023-05-23T06:13:40.711Z,16.90
2023-05-23T06:16:08.908Z,16.90
2023-05-23T06:18:38.741Z,17.00
2023-05-23T06:21:07.048Z,17.10
2023-05-23T06:23:35.230Z,17.20
2023-05-23T06:26:03.417Z,17.30
2023-05-23T06:28:31.573Z,17.70
2023-05-23T06:30:59.734Z,17.50
2023-05-23T06:33:27.863Z,17.60
2023-05-23T06:35:57.476Z,17.70
2023-05-23T06:38:28.110Z,17.80
2023-05-23T06:40:56.363Z,17.90
2023-05-23T06:43:24.557Z,18.00
2023-05-23T06:45:53.078Z,18.10
2023-05-23T06:48:21.368Z,18.30
2023-05-23T06:50:49.642Z,18.20
2023-05-23T06:53:19.430Z,18.30
2023-05-23T06:55:47.688Z,18.50
2023-05-23T06:58:16.040Z,18.60
2023-05-23T07:00:44.524Z,18.70
2023-05-23T07:03:12.788Z,18.70
2023-05-23T07:05:41.566Z,18.90
2023-05-23T07:08:11.058Z,19.00
2023-05-23T07:10:41.969Z,19.10
2023-05-23T07:13:10.593Z,19.20
2023-05-23T07:15:38.765Z,19.10
2023-05-23T07:18:07.025Z,19.30
2023-05-23T07:20:35.331Z,19.30
2023-05-23T07:23:03.556Z,19.30
2023-05-23T07:25:31.727Z,19.50
2023-05-23T07:28:01.294Z,19.60
2023-05-23T07:30:31.432Z,19.70
2023-05-23T07:33:01.859Z,19.90
2023-05-23T07:35:30.120Z,20.00
2023-05-23T07:37:58.351Z,20.20
2023-05-23T07:40:26.693Z,20.40
2023-05-23T07:42:55.875Z,20.60
2023-05-23T07:45:25.407Z,20.50
2023-05-23T07:47:54.017Z,20.70
2023-05-23T07:50:22.312Z,20.70
2023-05-23T07:52:51.383Z,20.80
2023-05-23T07:55:19.557Z,20.90
2023-05-23T07:57:47.759Z,21.00
2023-05-23T08:00:16.831Z,21.10
2023-05-23T08:02:46.417Z,21.10
2023-05-23T08:05:14.849Z,21.10
2023-05-23T08:07:43.051Z,21.20
2023-05-23T08:10:11.524Z,21.20
2023-05-23T08:12:39.708Z,21.20
2023-05-23T08:15:09.252Z,21.20
2023-05-23T08:17:37.790Z,21.30
2023-05-23T08:20:10.254Z,21.30
2023-05-23T08:22:38.490Z,21.40
2023-05-23T08:25:07.456Z,21.30
2023-05-23T08:27:36.773Z,21.50
2023-05-23T08:30:06.431Z,21.60
2023-05-23T08:32:34.608Z,21.80
2023-05-23T08:35:03.591Z,21.60
2023-05-23T08:37:33.211Z,21.60
2023-05-23T08:40:01.716Z,21.70
2023-05-23T08:42:30.134Z,21.80
2023-05-23T08:44:58.481Z,21.80
2023-05-23T08:47:27.200Z,21.80
2023-05-23T08:49:56.950Z,21.90
2023-05-23T08:52:28.855Z,21.90
2023-05-23T08:54:58.963Z,22.10
2023-05-23T08:57:27.325Z,21.90
2023-05-23T08:59:56.737Z,22.00
2023-05-23T09:02:25.905Z,22.20
2023-05-23T09:04:54.213Z,22.40
2023-05-23T09:07:22.696Z,22.40
2023-05-23T09:09:50.981Z,22.20
2023-05-23T09:12:22.458Z,22.40
2023-05-23T09:14:50.712Z,22.50
2023-05-23T09:17:20.138Z,22.80
2023-05-23T09:19:48.790Z,22.90
2023-05-23T09:22:16.968Z,22.90
2023-05-23T09:24:45.228Z,22.90
2023-05-23T09:27:13.388Z,23.10
2023-05-23T09:29:43.591Z,23.30
2023-05-23T09:32:15.927Z,23.40
2023-05-23T09:34:44.456Z,23.30
2023-05-23T09:37:19.214Z,23.20
2023-05-23T09:39:49.123Z,23.10
2023-05-23T09:42:22.384Z,23.10
2023-05-23T09:44:52.156Z,23.10
2023-05-23T09:47:20.478Z,23.30
2023-05-23T09:49:49.017Z,23.70
2023-05-23T09:52:20.212Z,23.10
2023-05-23T09:54:48.649Z,23.50
2023-05-23T09:57:18.133Z,23.80
2023-05-23T09:59:55.333Z,23.70
2023-05-23T10:02:54.969Z,23.60
2023-05-23T10:05:34.429Z,23.50
2023-05-23T10:08:07.392Z,23.70
2023-05-23T10:10:36.642Z,23.90
2023-05-23T10:13:06.995Z,23.90
2023-05-23T10:15:41.374Z,23.80
2023-05-23T10:18:17.722Z,23.90
2023-05-23T10:20:50.198Z,24.10
2023-05-23T10:23:19.343Z,24.00
2023-05-23T10:25:47.993Z,24.10
2023-05-23T10:28:17.255Z,24.00
2023-05-23T10:30:48.088Z,23.80
2023-05-23T10:33:17.900Z,23.80
2023-05-23T10:35:55.851Z,23.90
2023-05-23T10:38:34.129Z,24.40
2023-05-23T10:41:10.667Z,24.60
2023-05-23T10:43:50.226Z,24.70
2023-05-23T10:46:21.722Z,24.30
2023-05-23T10:48:55.070Z,24.50
2023-05-23T10:51:24.976Z,24.60
2023-05-23T10:53:55.732Z,24.70
2023-05-23T10:56:25.092Z,24.80
2023-05-23T10:58:55.165Z,25.00
2023-05-23T11:01:25.544Z,24.60
2023-05-23T11:03:55.990Z,24.50
2023-05-23T11:06:33.524Z,24.50
2023-05-23T11:09:07.198Z,24.50
2023-05-23T11:11:55.305Z,24.50
2023-05-23T11:14:33.859Z,24.60
2023-05-23T11:17:17.018Z,24.50
2023-05-23T11:19:59.648Z,24.40
2023-05-23T11:22:31.222Z,24.70
2023-05-23T11:25:00.372Z,25.00
2023-05-23T11:27:29.755Z,25.20
2023-05-23T11:30:03.944Z,25.20
2023-05-23T11:32:33.774Z,25.00
2023-05-23T11:35:02.494Z,24.90
2023-05-23T11:37:31.315Z,25.30
2023-05-23T11:39:59.951Z,25.10
2023-05-23T11:42:28.148Z,25.20
2023-05-23T11:44:56.409Z,25.10
2023-05-23T11:47:24.653Z,25.20
2023-05-23T11:49:54.705Z,25.50
2023-05-23T11:52:22.922Z,25.50
2023-05-23T11:54:53.004Z,25.70
2023-05-23T11:57:23.180Z,25.70
2023-05-23T11:59:52.701Z,25.00
2023-05-23T12:02:22.721Z,24.60
2023-05-23T12:04:51.001Z,24.70
2023-05-23T12:07:22.459Z,25.20
2023-05-23T12:09:50.732Z,25.70
2023-05-23T12:12:20.595Z,25.50
2023-05-23T12:14:48.843Z,25.60
2023-05-23T12:17:17.132Z,25.60
2023-05-23T12:19:48.014Z,25.20
2023-05-23T12:22:16.197Z,25.50
2023-05-23T12:24:48.590Z,26.00
2023-05-23T12:27:18.668Z,25.90
2023-05-23T12:29:52.740Z,25.90
2023-05-23T12:32:20.988Z,25.70
2023-05-23T12:34:50.959Z,25.90
2023-05-23T12:37:20.497Z,26.30
2023-05-23T12:39:50.446Z,26.70
2023-05-23T12:42:18.649Z,27.10
2023-05-23T12:44:48.677Z,27.40
2023-05-23T12:47:16.930Z,27.20
2023-05-23T12:49:47.071Z,26.90
2023-05-23T12:52:15.233Z,27.20
2023-05-23T12:54:43.419Z,27.20
2023-05-23T12:57:13.091Z,27.20
2023-05-23T12:59:41.269Z,27.10
2023-05-23T13:02:09.463Z,26.90
2023-05-23T13:04:37.648Z,27.00
2023-05-23T13:07:06.115Z,26.50
2023-05-23T13:09:34.291Z,26.50
2023-05-23T13:12:02.549Z,26.00
2023-05-23T13:14:32.344Z,26.00
2023-05-23T13:17:00.728Z,25.60
2023-05-23T13:19:29.267Z,25.40
2023-05-23T13:21:57.609Z,25.70
2023-05-23T13:24:25.780Z,26.20
2023-05-23T13:26:54.541Z,27.10
2023-05-23T13:29:22.770Z,28.10
2023-05-23T13:31:53.236Z,28.10
2023-05-23T13:34:21.876Z,28.00
2023-05-23T13:36:50.115Z,28.20
2023-05-23T13:39:19.796Z,28.10
2023-05-23T13:41:48.722Z,28.20
2023-05-23T13:44:16.925Z,28.20
2023-05-23T13:46:45.219Z,28.30
2023-05-23T13:49:14.813Z,27.90
2023-05-23T13:51:43.602Z,28.40
2023-05-23T13:54:11.869Z,27.80
2023-05-23T13:56:40.526Z,27.90
2023-05-23T13:59:08.764Z,27.90
2023-05-23T14:01:36.950Z,27.70
2023-05-23T14:04:07.029Z,27.00
2023-05-23T14:06:36.940Z,27.20
2023-05-23T14:09:05.471Z,27.80
2023-05-23T14:11:33.879Z,27.80
2023-05-23T14:14:02.088Z,27.70
2023-05-23T14:16:30.413Z,27.90
2023-05-23T14:18:58.783Z,27.20
2023-05-23T14:21:28.220Z,26.70
2023-05-23T14:23:57.795Z,26.50
2023-05-23T14:26:26.496Z,26.60
2023-05-23T14:28:54.710Z,27.40
2023-05-23T14:31:23.172Z,26.70
2023-05-23T14:33:51.478Z,28.00
2023-05-23T14:36:19.664Z,28.80
2023-05-23T14:38:47.868Z,29.10
2023-05-23T14:41:17.638Z,29.90
2023-05-23T14:43:46.137Z,29.70
2023-05-23T14:46:15.533Z,30.50
2023-05-23T14:48:43.804Z,30.00
2023-05-23T14:51:20.712Z,29.10
2023-05-23T14:53:55.612Z,28.70
2023-05-23T14:56:27.143Z,27.90
2023-05-23T14:58:57.369Z,27.70
2023-05-23T15:01:25.804Z,28.30
2023-05-23T15:03:54.125Z,29.50
2023-05-23T15:06:22.548Z,29.60
2023-05-23T15:08:50.688Z,28.80
2023-05-23T15:11:19.048Z,28.00
2023-05-23T15:13:48.632Z,28.70
2023-05-23T15:16:18.002Z,29.80
2023-05-23T15:18:46.309Z,30.70
2023-05-23T15:21:14.655Z,31.30
2023-05-23T15:23:42.841Z,30.00
2023-05-23T15:26:11.056Z,29.50
2023-05-23T15:28:39.233Z,29.70
2023-05-23T15:31:08.808Z,29.40
2023-05-23T15:33:36.979Z,30.40
2023-05-23T15:36:05.352Z,30.40
2023-05-23T15:38:33.585Z,30.80
2023-05-23T15:41:02.446Z,30.50
2023-05-23T15:43:31.031Z,30.20
2023-05-23T15:45:59.323Z,29.70
2023-05-23T15:48:29.092Z,29.30
2023-05-23T15:50:57.254Z,29.50
2023-05-23T15:53:25.470Z,30.30
2023-05-23T15:55:53.724Z,30.20
2023-05-23T15:58:21.898Z,30.30
2023-05-23T16:00:50.161Z,30.40
2023-05-23T16:03:18.727Z,30.40
2023-05-23T16:05:48.347Z,29.80
2023-05-23T16:08:16.545Z,30.20
2023-05-23T16:10:44.859Z,29.70
2023-05-23T16:13:13.074Z,29.70
2023-05-23T16:15:41.414Z,30.00
2023-05-23T16:18:09.820Z,29.30
2023-05-23T16:20:38.017Z,29.60
2023-05-23T16:23:07.538Z,30.10
2023-05-23T16:25:35.916Z,30.10
2023-05-23T16:28:04.083Z,30.10
2023-05-23T16:30:32.645Z,30.00
2023-05-23T16:33:01.132Z,30.00
2023-05-23T16:35:29.400Z,29.90
2023-05-23T16:37:57.632Z,29.90
2023-05-23T16:40:27.174Z,29.20
2023-05-23T16:42:55.480Z,28.80
2023-05-23T16:45:23.898Z,28.40
2023-05-23T16:47:52.191Z,28.20
2023-05-23T16:50:20.373Z,27.80
2023-05-23T16:52:48.573Z,27.40
2023-05-23T16:55:17.034Z,27.20
2023-05-23T16:57:46.552Z,26.80
2023-05-23T17:00:15.980Z,26.40
2023-05-23T17:02:44.939Z,26.10
2023-05-23T17:05:16.104Z,26.00
2023-05-23T17:07:44.668Z,25.60
2023-05-23T17:10:12.930Z,25.40
2023-05-23T17:12:41.122Z,25.20
2023-05-23T17:15:12.024Z,25.00
2023-05-23T17:17:40.285Z,24.70
2023-05-23T17:20:10.148Z,24.60
2023-05-23T17:22:38.678Z,24.40
2023-05-23T17:25:07.646Z,24.30
2023-05-23T17:27:35.857Z,24.20
2023-05-23T17:30:05.631Z,24.10
2023-05-23T17:32:35.450Z,24.10
2023-05-23T17:35:03.659Z,23.90
2023-05-23T17:37:31.813Z,23.80
2023-05-23T17:40:00.029Z,23.70
2023-05-23T17:42:28.270Z,23.60
2023-05-23T17:44:56.433Z,23.50
2023-05-23T17:47:24.664Z,23.40
2023-05-23T17:49:54.281Z,23.20
2023-05-23T17:52:22.471Z,22.90
2023-05-23T17:54:50.694Z,22.90
2023-05-23T17:57:19.012Z,22.90
2023-05-23T17:59:47.339Z,22.80
2023-05-23T18:02:15.523Z,22.60
2023-05-23T18:04:44.011Z,22.50
2023-05-23T18:07:15.081Z,22.50
2023-05-23T18:09:43.290Z,22.30
2023-05-23T18:12:11.613Z,22.20
2023-05-23T18:14:40.115Z,22.10
2023-05-23T18:17:09.933Z,22.10
2023-05-23T18:19:38.322Z,21.90
2023-05-23T18:22:06.896Z,21.70
2023-05-23T18:24:36.527Z,21.60
2023-05-23T18:27:05.017Z,21.50
2023-05-23T18:29:33.244Z,21.60
2023-05-23T18:32:01.446Z,21.40
2023-05-23T18:34:29.668Z,21.40
2023-05-23T18:36:57.866Z,21.30
2023-05-23T18:39:28.470Z,21.30
2023-05-23T18:41:58.797Z,21.20
2023-05-23T18:44:27.365Z,21.10
2023-05-23T18:46:55.658Z,21.00
2023-05-23T18:49:23.926Z,20.90
2023-05-23T18:51:54.397Z,20.90
2023-05-23T18:54:22.648Z,20.80
2023-05-23T18:56:50.874Z,20.80
2023-05-23T18:59:20.918Z,20.80
2023-05-23T19:01:49.171Z,20.70
2023-05-23T19:04:18.210Z,20.60
2023-05-23T19:06:49.577Z,20.50
2023-05-23T19:09:17.792Z,20.50
2023-05-23T19:11:45.960Z,20.50
2023-05-23T19:14:14.243Z,20.40
2023-05-23T19:16:43.878Z,20.30
2023-05-23T19:19:14.562Z,20.30
2023-05-23T19:21:42.881Z,20.20
2023-05-23T19:24:11.286Z,20.20
2023-05-23T19:26:42.388Z,20.10
2023-05-23T19:29:11.527Z,19.90
2023-05-23T19:31:40.046Z,20.00
2023-05-23T19:34:09.684Z,19.80
2023-05-23T19:36:38.080Z,19.80
2023-05-23T19:39:07.089Z,19.80
2023-05-23T19:41:35.276Z,19.70
2023-05-23T19:44:03.493Z,19.70
2023-05-23T19:46:31.809Z,19.70
2023-05-23T19:49:00.148Z,19.70
2023-05-23T19:51:30.235Z,19.70
2023-05-23T19:53:58.450Z,19.60
2023-05-23T19:56:27.553Z,19.60
2023-05-23T19:58:55.751Z,19.60
2023-05-23T20:01:24.038Z,19.50
2023-05-23T20:03:52.398Z,19.50
2023-05-23T20:06:20.873Z,19.40
2023-05-23T20:08:50.522Z,19.50
2023-05-23T20:11:18.782Z,19.50
2023-05-23T20:13:47.012Z,19.50
2023-05-23T20:16:15.298Z,19.40
2023-05-23T20:18:47.390Z,19.30
2023-05-23T20:21:15.661Z,19.10
2023-05-23T20:23:45.188Z,19.10
2023-05-23T20:26:14.813Z,19.10
2023-05-23T20:28:42.996Z,19.10
2023-05-23T20:31:11.555Z,19.10
2023-05-23T20:33:39.802Z,19.10
2023-05-23T20:36:09.017Z,19.10
2023-05-23T20:38:37.221Z,19.00
2023-05-23T20:41:07.556Z,19.00
2023-05-23T20:43:38.225Z,19.00
2023-05-23T20:46:06.904Z,19.00
2023-05-23T20:48:35.387Z,19.00
2023-05-23T20:51:05.688Z,19.10
2023-05-23T20:53:33.983Z,19.10
2023-05-23T20:56:02.740Z,19.10
2023-05-23T20:58:31.014Z,19.10
2023-05-23T21:01:00.728Z,19.10
2023-05-23T21:03:29.135Z,19.20
2023-05-23T21:05:57.513Z,19.20
2023-05-23T21:08:25.774Z,19.20
2023-05-23T21:10:54.849Z,19.10
2023-05-23T21:13:23.462Z,19.20
2023-05-23T21:15:51.788Z,19.20
2023-05-23T21:18:22.474Z,19.20
2023-05-23T21:20:51.217Z,19.20
2023-05-23T21:23:19.395Z,19.20
2023-05-23T21:25:47.596Z,19.20
2023-05-23T21:28:15.853Z,19.10
2023-05-23T21:30:44.658Z,19.10
2023-05-23T21:33:13.072Z,19.10
2023-05-23T21:35:42.817Z,19.20
2023-05-23T21:38:11.177Z,18.90
2023-05-23T21:40:39.451Z,19.00
2023-05-23T21:43:07.702Z,18.90
2023-05-23T21:45:35.896Z,18.90
2023-05-23T21:48:04.230Z,18.80
2023-05-23T21:50:32.474Z,18.70
2023-05-23T21:53:02.025Z,18.80
2023-05-23T21:55:30.276Z,18.90
2023-05-23T21:57:58.480Z,18.90
2023-05-23T22:00:27.403Z,18.90
2023-05-23T22:02:55.673Z,18.70
2023-05-23T22:05:23.954Z,18.70
2023-05-23T22:07:52.283Z,18.70
2023-05-23T22:10:21.906Z,18.60
2023-05-23T22:12:50.102Z,18.60
2023-05-23T22:15:18.411Z,18.70
2023-05-23T22:17:46.964Z,18.60
2023-05-23T22:20:16.112Z,18.60
2023-05-23T22:22:44.426Z,18.60
2023-05-23T22:25:12.639Z,18.60
2023-05-23T22:27:42.335Z,18.70
2023-05-23T22:30:11.421Z,18.70
2023-05-23T22:32:39.701Z,18.60
2023-05-23T22:35:08.619Z,18.60
2023-05-23T22:37:36.867Z,18.50
2023-05-23T22:40:06.636Z,18.60
2023-05-23T22:42:34.878Z,18.60
2023-05-23T22:45:04.746Z,18.50
2023-05-23T22:47:33.430Z,18.50
2023-05-23T22:50:02.210Z,18.40
2023-05-23T22:52:31.231Z,18.30
2023-05-23T22:54:59.510Z,18.30
2023-05-23T22:57:27.786Z,18.20
2023-05-23T22:59:56.100Z,18.30
2023-05-23T23:02:25.956Z,18.20
2023-05-23T23:04:54.289Z,18.30
2023-05-23T23:07:22.515Z,18.30
2023-05-23T23:09:50.785Z,18.30
2023-05-23T23:12:19.090Z,18.20
2023-05-23T23:14:47.451Z,18.10
2023-05-23T23:17:16.435Z,18.20
2023-05-23T23:19:46.958Z,18.10
2023-05-23T23:22:15.166Z,18.10
2023-05-23T23:24:43.386Z,18.10
2023-05-23T23:27:11.670Z,18.00
2023-05-23T23:29:39.884Z,18.00
2023-05-23T23:32:08.388Z,18.10
2023-05-23T23:34:36.654Z,18.00
2023-05-23T23:37:06.526Z,17.90
2023-05-23T23:39:34.743Z,17.90
2023-05-23T23:42:03.552Z,17.80
2023-05-23T23:44:31.985Z,17.70
2023-05-23T23:47:00.156Z,17.80
2023-05-23T23:49:28.420Z,17.70
2023-05-23T23:51:56.661Z,17.70
2023-05-23T23:54:26.461Z,17.80
2023-05-23T23:56:54.722Z,17.70
2023-05-23T23:59:23.088Z,17.60
